Terminal Aerodrome Forecast
Issued by NWS

Home | Current Version | Previous Version | Text Only | Print | Product List | Glossary On
Versions: 1 2 3 4 5 6 7 8 9 10 11 12 13 14 15 16 17 18
000
FTAK31 PAJN 210200 AAA
TAFAWG
TAF AMD
PAWG 210209Z 2102/2124 30005KT 1SM RA BR BKN015 OVC025
      TEMPO 2102/2106 1/2SM -RA FG BKN009 OVC015
     FM210900 13010KT 2SM RA BR BKN006 OVC015=

USA.gov is the U.S. government's official web portal to all federal, state and local government web resources and services.